KLGU

Logan-Cache Airport

Logan, Utah, USA
KLGU 170237Z 1703/1724 VRB04KT 3SM BR VCSH SCT020 BKN060 FM171500 VRB04KT P6SM -SHRA SCT020 BKN040 FM171800 23006KT P6SM -RA SCT010 BKN025
Issued Valid From Valid To
Jan-17 @ 02:37 UTC
(2 hours ago)
Jan-17 @ 03:00 UTC
(2 hours ago)
Jan-18 @ 00:00 UTC
(in 19 hours)
Jan-17 @ 03:00 to Jan-17 @ 15:00
KLGU 170237Z 1703/1724 VRB04KT 3SM BR VCSH SCT020 BKN060
Wind Visibility Clouds Conditions
Variable at 4 knots 3 miles
  • Scattered at 2,000' AGL
  • Broken at 6,000' AGL
  • Mist
From Jan-17 @ 15:00 to Jan-17 @ 18:00
FM171500 VRB04KT P6SM -SHRA SCT020 BKN040
Wind Visibility Clouds Conditions
Variable at 4 knots Greater than 6 miles
  • Scattered at 2,000' AGL
  • Broken at 4,000' AGL
  • Light Rain
From Jan-17 @ 18:00 to Jan-18 @ 00:00
FM171800 23006KT P6SM -RA SCT010 BKN025
Wind Visibility Clouds Conditions
230° at 6 knots Greater than 6 miles
  • Scattered at 1,000' AGL
  • Broken at 2,500' AGL
  • Light Rain
KLGU 170237Z 1703/1724 VRB04KT 3SM BR VCSH SCT020 BKN060 FM171500 VRB04KT P6SM -SHRA SCT020 BKN040 FM171800 23006KT P6SM -RA SCT010 BKN025
Issued Jan-17 @ 02:37 UTC
(2 hours ago)
Valid From Jan-17 @ 03:00 UTC
(2 hours ago)
Valid To Jan-18 @ 00:00 UTC
(in 19 hours)
Jan-17 @ 03:00 - Jan-17 @ 15:00
Wind Visibility
Variable at 4 knots 3 miles
Clouds
  • Scattered at 2,000' AGL
  • Broken at 6,000' AGL
Conditions
  • Mist
From Jan-17 @ 15:00 - Jan-17 @ 18:00
Wind Visibility
Variable at 4 knots Greater than 6 miles
Clouds
  • Scattered at 2,000' AGL
  • Broken at 4,000' AGL
Conditions
  • Light Rain
From Jan-17 @ 18:00 - Jan-18 @ 00:00
Wind Visibility
230° at 6 knots Greater than 6 miles
Clouds
  • Scattered at 1,000' AGL
  • Broken at 2,500' AGL
Conditions
  • Light Rain